sensor_id;sensor_type;location;lat;lon;timestamp;P1;durP1;ratioP1;P2;durP2;ratioP2
12762;SDS011;6445;52.490;13.378;2023-02-22T00:01:19;15.40;;;4.65;;
12762;SDS011;6445;52.490;13.378;2023-02-22T00:03:52;18.80;;;4.20;;
12762;SDS011;6445;52.490;13.378;2023-02-22T00:06:18;19.17;;;4.50;;
12762;SDS011;6445;52.490;13.378;2023-02-22T00:08:45;21.27;;;4.80;;
12762;SDS011;6445;52.490;13.378;2023-02-22T00:11:12;19.13;;;4.38;;
12762;SDS011;6445;52.490;13.378;2023-02-22T00:13:38;21.85;;;4.93;;
12762;SDS011;6445;52.490;13.378;2023-02-22T00:16:08;18.17;;;4.28;;
12762;SDS011;6445;52.490;13.378;2023-02-22T00:18:36;16.42;;;4.63;;
12762;SDS011;6445;52.490;13.378;2023-02-22T00:21:02;16.33;;;4.22;;
12762;SDS011;6445;52.490;13.378;2023-02-22T00:23:28;17.58;;;3.97;;
12762;SDS011;6445;52.490;13.378;2023-02-22T00:25:55;20.90;;;4.40;;
12762;SDS011;6445;52.490;13.378;2023-02-22T00:28:21;19.10;;;5.45;;
12762;SDS011;6445;52.490;13.378;2023-02-22T00:30:48;19.92;;;4.75;;
12762;SDS011;6445;52.490;13.378;2023-02-22T00:33:14;21.40;;;4.60;;
12762;SDS011;6445;52.490;13.378;2023-02-22T00:35:40;21.60;;;4.30;;
12762;SDS011;6445;52.490;13.378;2023-02-22T00:38:09;20.75;;;4.78;;
12762;SDS011;6445;52.490;13.378;2023-02-22T00:40:35;18.85;;;4.15;;
12762;SDS011;6445;52.490;13.378;2023-02-22T00:43:01;19.42;;;5.07;;
12762;SDS011;6445;52.490;13.378;2023-02-22T00:45:28;14.40;;;4.43;;
12762;SDS011;6445;52.490;13.378;2023-02-22T00:47:54;17.35;;;4.38;;
12762;SDS011;6445;52.490;13.378;2023-02-22T00:50:20;15.00;;;4.50;;
12762;SDS011;6445;52.490;13.378;2023-02-22T00:52:47;23.58;;;4.38;;
12762;SDS011;6445;52.490;13.378;2023-02-22T00:55:16;18.33;;;4.50;;
12762;SDS011;6445;52.490;13.378;2023-02-22T00:57:46;20.23;;;4.13;;
12762;SDS011;6445;52.490;13.378;2023-02-22T01:00:17;24.65;;;4.60;;
12762;SDS011;6445;52.490;13.378;2023-02-22T01:02:44;13.68;;;4.07;;
12762;SDS011;6445;52.490;13.378;2023-02-22T01:05:11;23.98;;;5.07;;
12762;SDS011;6445;52.490;13.378;2023-02-22T01:07:37;18.90;;;4.32;;
12762;SDS011;6445;52.490;13.378;2023-02-22T01:10:04;19.25;;;4.10;;
12762;SDS011;6445;52.490;13.378;2023-02-22T01:12:30;20.50;;;4.32;;
12762;SDS011;6445;52.490;13.378;2023-02-22T01:14:56;16.52;;;4.38;;
12762;SDS011;6445;52.490;13.378;2023-02-22T01:17:22;24.17;;;4.63;;
12762;SDS011;6445;52.490;13.378;2023-02-22T01:19:49;23.48;;;4.53;;
12762;SDS011;6445;52.490;13.378;2023-02-22T01:22:14;14.65;;;4.30;;
12762;SDS011;6445;52.490;13.378;2023-02-22T01:24:39;15.30;;;4.28;;
12762;SDS011;6445;52.490;13.378;2023-02-22T01:27:05;17.55;;;3.85;;
12762;SDS011;6445;52.490;13.378;2023-02-22T01:29:30;18.63;;;4.22;;
12762;SDS011;6445;52.490;13.378;2023-02-22T01:31:56;15.63;;;3.70;;
12762;SDS011;6445;52.490;13.378;2023-02-22T01:34:22;18.52;;;4.30;;
12762;SDS011;6445;52.490;13.378;2023-02-22T01:36:48;16.77;;;3.70;;
12762;SDS011;6445;52.490;13.378;2023-02-22T01:39:14;19.40;;;4.45;;
12762;SDS011;6445;52.490;13.378;2023-02-22T01:41:42;24.55;;;4.57;;
12762;SDS011;6445;52.490;13.378;2023-02-22T01:46:43;15.75;;;4.20;;
12762;SDS011;6445;52.490;13.378;2023-02-22T01:49:08;17.10;;;4.03;;
12762;SDS011;6445;52.490;13.378;2023-02-22T01:51:53;15.60;;;3.75;;
12762;SDS011;6445;52.490;13.378;2023-02-22T01:54:29;10.50;;;3.47;;
12762;SDS011;6445;52.490;13.378;2023-02-22T01:57:06;18.85;;;3.63;;
12762;SDS011;6445;52.490;13.378;2023-02-22T01:59:39;16.65;;;4.32;;
12762;SDS011;6445;52.490;13.378;2023-02-22T02:02:08;15.98;;;4.00;;
12762;SDS011;6445;52.490;13.378;2023-02-22T02:04:34;22.60;;;4.35;;
12762;SDS011;6445;52.490;13.378;2023-02-22T02:07:02;14.48;;;3.65;;
12762;SDS011;6445;52.490;13.378;2023-02-22T02:09:42;20.25;;;4.47;;
12762;SDS011;6445;52.490;13.378;2023-02-22T02:12:13;15.38;;;4.13;;
12762;SDS011;6445;52.490;13.378;2023-02-22T02:14:41;18.63;;;4.53;;
12762;SDS011;6445;52.490;13.378;2023-02-22T02:17:08;22.30;;;4.47;;
12762;SDS011;6445;52.490;13.378;2023-02-22T02:31:23;13.93;;;3.80;;
12762;SDS011;6445;52.490;13.378;2023-02-22T02:34:10;21.10;;;4.65;;
12762;SDS011;6445;52.490;13.378;2023-02-22T02:36:57;19.08;;;4.38;;
12762;SDS011;6445;52.490;13.378;2023-02-22T02:39:34;16.35;;;4.30;;
12762;SDS011;6445;52.490;13.378;2023-02-22T02:42:07;21.75;;;4.50;;
12762;SDS011;6445;52.490;13.378;2023-02-22T02:44:39;21.50;;;4.68;;
12762;SDS011;6445;52.490;13.378;2023-02-22T02:47:11;18.17;;;4.28;;
12762;SDS011;6445;52.490;13.378;2023-02-22T02:49:46;23.77;;;4.40;;
12762;SDS011;6445;52.490;13.378;2023-02-22T02:52:15;19.92;;;4.40;;
12762;SDS011;6445;52.490;13.378;2023-02-22T02:54:43;19.80;;;4.47;;
12762;SDS011;6445;52.490;13.378;2023-02-22T02:57:10;22.02;;;4.57;;
12762;SDS011;6445;52.490;13.378;2023-02-22T02:59:35;22.23;;;4.55;;
12762;SDS011;6445;52.490;13.378;2023-02-22T03:02:06;14.45;;;4.05;;
12762;SDS011;6445;52.490;13.378;2023-02-22T03:04:56;23.23;;;5.03;;
12762;SDS011;6445;52.490;13.378;2023-02-22T03:07:44;20.40;;;4.50;;
12762;SDS011;6445;52.490;13.378;2023-02-22T03:10:19;15.80;;;3.80;;
12762;SDS011;6445;52.490;13.378;2023-02-22T03:13:13;22.13;;;4.60;;
12762;SDS011;6445;52.490;13.378;2023-02-22T03:18:27;15.88;;;4.55;;
12762;SDS011;6445;52.490;13.378;2023-02-22T03:21:16;26.83;;;5.47;;
12762;SDS011;6445;52.490;13.378;2023-02-22T03:24:12;21.90;;;5.13;;
12762;SDS011;6445;52.490;13.378;2023-02-22T03:26:55;24.65;;;5.22;;
12762;SDS011;6445;52.490;13.378;2023-02-22T03:29:37;23.80;;;4.57;;
12762;SDS011;6445;52.490;13.378;2023-02-22T03:32:08;20.02;;;4.80;;
12762;SDS011;6445;52.490;13.378;2023-02-22T03:34:45;21.25;;;4.72;;
12762;SDS011;6445;52.490;13.378;2023-02-22T03:37:17;21.75;;;4.70;;
12762;SDS011;6445;52.490;13.378;2023-02-22T03:39:46;20.10;;;4.50;;
12762;SDS011;6445;52.490;13.378;2023-02-22T03:42:17;22.23;;;4.90;;
12762;SDS011;6445;52.490;13.378;2023-02-22T03:44:47;17.10;;;4.82;;
12762;SDS011;6445;52.490;13.378;2023-02-22T03:47:17;22.02;;;5.43;;
12762;SDS011;6445;52.490;13.378;2023-02-22T03:49:52;19.30;;;5.10;;
12762;SDS011;6445;52.490;13.378;2023-02-22T03:52:22;25.98;;;6.07;;
12762;SDS011;6445;52.490;13.378;2023-02-22T03:54:48;17.15;;;5.95;;
12762;SDS011;6445;52.490;13.378;2023-02-22T03:57:32;25.17;;;6.00;;
12762;SDS011;6445;52.490;13.378;2023-02-22T04:00:03;18.92;;;4.85;;
12762;SDS011;6445;52.490;13.378;2023-02-22T04:02:31;15.10;;;4.93;;
12762;SDS011;6445;52.490;13.378;2023-02-22T04:04:56;14.15;;;4.05;;
12762;SDS011;6445;52.490;13.378;2023-02-22T04:07:22;24.77;;;4.72;;
12762;SDS011;6445;52.490;13.378;2023-02-22T04:09:47;16.80;;;5.10;;
12762;SDS011;6445;52.490;13.378;2023-02-22T04:12:12;19.70;;;4.80;;
12762;SDS011;6445;52.490;13.378;2023-02-22T04:14:37;22.27;;;4.47;;
12762;SDS011;6445;52.490;13.378;2023-02-22T04:17:03;23.42;;;5.05;;
12762;SDS011;6445;52.490;13.378;2023-02-22T04:19:28;14.50;;;4.20;;
12762;SDS011;6445;52.490;13.378;2023-02-22T04:21:53;21.75;;;3.95;;
12762;SDS011;6445;52.490;13.378;2023-02-22T04:24:19;18.02;;;4.68;;
12762;SDS011;6445;52.490;13.378;2023-02-22T04:26:44;18.02;;;4.15;;
12762;SDS011;6445;52.490;13.378;2023-02-22T04:29:10;18.67;;;4.53;;
12762;SDS011;6445;52.490;13.378;2023-02-22T04:31:35;18.13;;;4.30;;
12762;SDS011;6445;52.490;13.378;2023-02-22T04:34:00;19.00;;;4.30;;
12762;SDS011;6445;52.490;13.378;2023-02-22T04:36:27;22.42;;;4.57;;
12762;SDS011;6445;52.490;13.378;2023-02-22T04:38:55;22.33;;;4.78;;
12762;SDS011;6445;52.490;13.378;2023-02-22T04:41:21;16.00;;;4.40;;
12762;SDS011;6445;52.490;13.378;2023-02-22T04:43:46;17.20;;;4.75;;
12762;SDS011;6445;52.490;13.378;2023-02-22T04:46:12;18.38;;;4.30;;
12762;SDS011;6445;52.490;13.378;2023-02-22T04:48:37;18.50;;;4.68;;
12762;SDS011;6445;52.490;13.378;2023-02-22T04:51:03;15.85;;;5.00;;
12762;SDS011;6445;52.490;13.378;2023-02-22T04:53:29;19.48;;;4.82;;
12762;SDS011;6445;52.490;13.378;2023-02-22T04:55:54;17.63;;;4.65;;
12762;SDS011;6445;52.490;13.378;2023-02-22T04:58:20;23.48;;;4.82;;
12762;SDS011;6445;52.490;13.378;2023-02-22T05:00:45;22.63;;;5.30;;
12762;SDS011;6445;52.490;13.378;2023-02-22T05:03:11;18.77;;;5.22;;
12762;SDS011;6445;52.490;13.378;2023-02-22T05:05:36;21.00;;;4.78;;
12762;SDS011;6445;52.490;13.378;2023-02-22T05:08:01;20.58;;;4.85;;
12762;SDS011;6445;52.490;13.378;2023-02-22T05:10:27;27.70;;;6.00;;
12762;SDS011;6445;52.490;13.378;2023-02-22T05:12:52;18.02;;;4.47;;
12762;SDS011;6445;52.490;13.378;2023-02-22T05:15:18;17.38;;;5.25;;
12762;SDS011;6445;52.490;13.378;2023-02-22T05:17:45;19.20;;;4.88;;
12762;SDS011;6445;52.490;13.378;2023-02-22T05:20:15;22.67;;;5.20;;
12762;SDS011;6445;52.490;13.378;2023-02-22T05:22:45;20.90;;;5.32;;
12762;SDS011;6445;52.490;13.378;2023-02-22T05:25:10;23.10;;;5.57;;
12762;SDS011;6445;52.490;13.378;2023-02-22T05:27:36;23.77;;;4.70;;
12762;SDS011;6445;52.490;13.378;2023-02-22T05:30:01;23.67;;;5.93;;
12762;SDS011;6445;52.490;13.378;2023-02-22T05:32:27;17.23;;;4.90;;
12762;SDS011;6445;52.490;13.378;2023-02-22T05:34:52;15.45;;;4.70;;
12762;SDS011;6445;52.490;13.378;2023-02-22T05:37:17;15.80;;;4.88;;
12762;SDS011;6445;52.490;13.378;2023-02-22T05:39:42;17.70;;;4.80;;
12762;SDS011;6445;52.490;13.378;2023-02-22T05:42:10;24.25;;;5.28;;
12762;SDS011;6445;52.490;13.378;2023-02-22T05:44:35;21.80;;;5.38;;
12762;SDS011;6445;52.490;13.378;2023-02-22T05:47:00;17.27;;;4.88;;
12762;SDS011;6445;52.490;13.378;2023-02-22T05:49:26;16.40;;;5.05;;
12762;SDS011;6445;52.490;13.378;2023-02-22T05:51:51;23.85;;;5.60;;
12762;SDS011;6445;52.490;13.378;2023-02-22T05:54:16;23.58;;;5.55;;
12762;SDS011;6445;52.490;13.378;2023-02-22T05:56:41;23.33;;;5.55;;
12762;SDS011;6445;52.490;13.378;2023-02-22T05:59:07;21.17;;;5.72;;
12762;SDS011;6445;52.490;13.378;2023-02-22T06:01:32;22.60;;;5.20;;
12762;SDS011;6445;52.490;13.378;2023-02-22T06:03:57;26.75;;;5.78;;
12762;SDS011;6445;52.490;13.378;2023-02-22T06:06:22;29.85;;;6.43;;
12762;SDS011;6445;52.490;13.378;2023-02-22T06:08:48;25.33;;;6.25;;
12762;SDS011;6445;52.490;13.378;2023-02-22T06:11:13;23.98;;;6.40;;
12762;SDS011;6445;52.490;13.378;2023-02-22T06:13:38;20.35;;;6.30;;
12762;SDS011;6445;52.490;13.378;2023-02-22T06:16:05;28.90;;;6.47;;
12762;SDS011;6445;52.490;13.378;2023-02-22T06:18:30;20.38;;;6.10;;
12762;SDS011;6445;52.490;13.378;2023-02-22T06:20:56;23.30;;;6.65;;
12762;SDS011;6445;52.490;13.378;2023-02-22T06:23:23;25.02;;;6.18;;
12762;SDS011;6445;52.490;13.378;2023-02-22T06:25:48;18.88;;;6.57;;
12762;SDS011;6445;52.490;13.378;2023-02-22T06:28:13;26.88;;;6.75;;
12762;SDS011;6445;52.490;13.378;2023-02-22T06:30:39;26.25;;;6.35;;
12762;SDS011;6445;52.490;13.378;2023-02-22T06:33:06;22.52;;;5.70;;
12762;SDS011;6445;52.490;13.378;2023-02-22T06:35:32;22.08;;;5.70;;
12762;SDS011;6445;52.490;13.378;2023-02-22T06:37:57;25.65;;;6.45;;
12762;SDS011;6445;52.490;13.378;2023-02-22T06:40:22;24.73;;;6.80;;
12762;SDS011;6445;52.490;13.378;2023-02-22T06:42:48;16.70;;;5.60;;
12762;SDS011;6445;52.490;13.378;2023-02-22T06:45:15;22.67;;;6.18;;
12762;SDS011;6445;52.490;13.378;2023-02-22T06:47:41;19.33;;;5.97;;
12762;SDS011;6445;52.490;13.378;2023-02-22T06:50:07;20.98;;;6.10;;
12762;SDS011;6445;52.490;13.378;2023-02-22T06:52:42;23.80;;;6.10;;
12762;SDS011;6445;52.490;13.378;2023-02-22T06:55:08;26.23;;;5.93;;
12762;SDS011;6445;52.490;13.378;2023-02-22T06:57:33;18.67;;;6.03;;
12762;SDS011;6445;52.490;13.378;2023-02-22T06:59:58;27.73;;;5.65;;
12762;SDS011;6445;52.490;13.378;2023-02-22T07:02:23;27.52;;;7.00;;
12762;SDS011;6445;52.490;13.378;2023-02-22T07:04:49;25.10;;;6.47;;
12762;SDS011;6445;52.490;13.378;2023-02-22T07:07:14;26.00;;;6.53;;
12762;SDS011;6445;52.490;13.378;2023-02-22T07:09:39;20.40;;;6.30;;
12762;SDS011;6445;52.490;13.378;2023-02-22T07:12:04;19.85;;;5.60;;
12762;SDS011;6445;52.490;13.378;2023-02-22T07:14:31;17.67;;;5.97;;
12762;SDS011;6445;52.490;13.378;2023-02-22T07:16:56;18.60;;;6.07;;
12762;SDS011;6445;52.490;13.378;2023-02-22T07:19:21;22.15;;;6.05;;
12762;SDS011;6445;52.490;13.378;2023-02-22T07:21:47;26.90;;;6.43;;
12762;SDS011;6445;52.490;13.378;2023-02-22T07:24:12;26.15;;;5.88;;
12762;SDS011;6445;52.490;13.378;2023-02-22T07:26:38;21.15;;;5.50;;
12762;SDS011;6445;52.490;13.378;2023-02-22T07:29:05;29.13;;;6.47;;
12762;SDS011;6445;52.490;13.378;2023-02-22T07:31:34;17.45;;;6.30;;
12762;SDS011;6445;52.490;13.378;2023-02-22T07:34:00;20.30;;;5.93;;
12762;SDS011;6445;52.490;13.378;2023-02-22T07:36:26;19.17;;;5.22;;
12762;SDS011;6445;52.490;13.378;2023-02-22T07:38:51;19.77;;;5.10;;
12762;SDS011;6445;52.490;13.378;2023-02-22T07:41:16;22.67;;;5.90;;
12762;SDS011;6445;52.490;13.378;2023-02-22T07:43:42;18.90;;;5.00;;
12762;SDS011;6445;52.490;13.378;2023-02-22T07:46:07;27.35;;;7.75;;
12762;SDS011;6445;52.490;13.378;2023-02-22T07:48:32;24.50;;;7.00;;
12762;SDS011;6445;52.490;13.378;2023-02-22T07:50:57;24.98;;;8.82;;
12762;SDS011;6445;52.490;13.378;2023-02-22T07:53:24;21.98;;;8.60;;
12762;SDS011;6445;52.490;13.378;2023-02-22T07:55:53;27.38;;;10.60;;
12762;SDS011;6445;52.490;13.378;2023-02-22T07:58:20;34.92;;;10.43;;
12762;SDS011;6445;52.490;13.378;2023-02-22T08:00:51;30.67;;;10.57;;
12762;SDS011;6445;52.490;13.378;2023-02-22T08:03:17;22.95;;;9.75;;
12762;SDS011;6445;52.490;13.378;2023-02-22T08:05:45;23.67;;;9.73;;
12762;SDS011;6445;52.490;13.378;2023-02-22T08:08:11;23.85;;;8.85;;
12762;SDS011;6445;52.490;13.378;2023-02-22T08:10:39;24.60;;;7.75;;
12762;SDS011;6445;52.490;13.378;2023-02-22T08:13:04;24.30;;;7.65;;
12762;SDS011;6445;52.490;13.378;2023-02-22T08:15:31;21.67;;;7.32;;
12762;SDS011;6445;52.490;13.378;2023-02-22T08:18:00;24.98;;;7.03;;
12762;SDS011;6445;52.490;13.378;2023-02-22T08:20:27;23.58;;;7.72;;
12762;SDS011;6445;52.490;13.378;2023-02-22T08:22:53;25.85;;;8.20;;
12762;SDS011;6445;52.490;13.378;2023-02-22T08:25:20;30.60;;;7.43;;
12762;SDS011;6445;52.490;13.378;2023-02-22T08:27:49;31.42;;;8.10;;
12762;SDS011;6445;52.490;13.378;2023-02-22T08:30:16;22.35;;;7.95;;
12762;SDS011;6445;52.490;13.378;2023-02-22T08:32:44;22.13;;;7.30;;
12762;SDS011;6445;52.490;13.378;2023-02-22T08:35:11;22.45;;;7.43;;
12762;SDS011;6445;52.490;13.378;2023-02-22T08:37:40;29.20;;;7.82;;
12762;SDS011;6445;52.490;13.378;2023-02-22T08:40:06;17.33;;;6.15;;
12762;SDS011;6445;52.490;13.378;2023-02-22T08:42:31;20.55;;;7.15;;
12762;SDS011;6445;52.490;13.378;2023-02-22T08:44:57;24.33;;;6.53;;
12762;SDS011;6445;52.490;13.378;2023-02-22T08:47:22;20.77;;;6.13;;
12762;SDS011;6445;52.490;13.378;2023-02-22T08:49:47;24.45;;;7.07;;
12762;SDS011;6445;52.490;13.378;2023-02-22T08:52:13;22.92;;;7.13;;
12762;SDS011;6445;52.490;13.378;2023-02-22T08:54:38;25.95;;;7.15;;
12762;SDS011;6445;52.490;13.378;2023-02-22T08:57:03;28.75;;;7.05;;
12762;SDS011;6445;52.490;13.378;2023-02-22T08:59:28;24.63;;;6.70;;
12762;SDS011;6445;52.490;13.378;2023-02-22T09:01:54;16.63;;;6.30;;
12762;SDS011;6445;52.490;13.378;2023-02-22T09:04:19;21.80;;;6.20;;
12762;SDS011;6445;52.490;13.378;2023-02-22T09:06:44;22.27;;;6.97;;
12762;SDS011;6445;52.490;13.378;2023-02-22T09:09:15;17.70;;;5.68;;
12762;SDS011;6445;52.490;13.378;2023-02-22T09:11:42;16.65;;;5.38;;
12762;SDS011;6445;52.490;13.378;2023-02-22T09:14:08;22.70;;;5.68;;
12762;SDS011;6445;52.490;13.378;2023-02-22T09:16:33;21.63;;;5.75;;
12762;SDS011;6445;52.490;13.378;2023-02-22T09:19:01;23.98;;;5.68;;
12762;SDS011;6445;52.490;13.378;2023-02-22T09:21:27;20.33;;;5.60;;
12762;SDS011;6445;52.490;13.378;2023-02-22T09:23:53;20.75;;;5.40;;
12762;SDS011;6445;52.490;13.378;2023-02-22T09:26:18;18.23;;;4.90;;
12762;SDS011;6445;52.490;13.378;2023-02-22T09:28:44;21.77;;;5.35;;
12762;SDS011;6445;52.490;13.378;2023-02-22T09:31:11;19.67;;;5.20;;
12762;SDS011;6445;52.490;13.378;2023-02-22T09:33:36;19.58;;;4.70;;
12762;SDS011;6445;52.490;13.378;2023-02-22T09:36:02;19.02;;;4.35;;
12762;SDS011;6445;52.490;13.378;2023-02-22T09:38:27;22.23;;;4.82;;
12762;SDS011;6445;52.490;13.378;2023-02-22T09:41:07;26.48;;;5.22;;
12762;SDS011;6445;52.490;13.378;2023-02-22T09:43:45;20.88;;;4.63;;
12762;SDS011;6445;52.490;13.378;2023-02-22T09:46:31;20.88;;;4.55;;
12762;SDS011;6445;52.490;13.378;2023-02-22T09:49:04;24.23;;;5.00;;
12762;SDS011;6445;52.490;13.378;2023-02-22T09:54:20;19.15;;;4.97;;
12762;SDS011;6445;52.490;13.378;2023-02-22T09:56:51;13.52;;;4.40;;
12762;SDS011;6445;52.490;13.378;2023-02-22T09:59:22;18.20;;;4.35;;
12762;SDS011;6445;52.490;13.378;2023-02-22T10:01:54;16.40;;;4.18;;
12762;SDS011;6445;52.490;13.378;2023-02-22T10:04:48;20.40;;;4.43;;
12762;SDS011;6445;52.490;13.378;2023-02-22T10:07:22;18.40;;;4.47;;
12762;SDS011;6445;52.490;13.378;2023-02-22T10:09:52;23.08;;;5.10;;
12762;SDS011;6445;52.490;13.378;2023-02-22T10:12:28;27.00;;;5.45;;
12762;SDS011;6445;52.490;13.378;2023-02-22T10:15:15;18.88;;;3.92;;
12762;SDS011;6445;52.490;13.378;2023-02-22T10:20:38;19.85;;;4.45;;
12762;SDS011;6445;52.490;13.378;2023-02-22T10:25:38;13.75;;;4.65;;
12762;SDS011;6445;52.490;13.378;2023-02-22T10:28:14;18.25;;;4.60;;
12762;SDS011;6445;52.490;13.378;2023-02-22T10:30:51;20.83;;;4.88;;
12762;SDS011;6445;52.490;13.378;2023-02-22T10:33:28;16.33;;;4.30;;
12762;SDS011;6445;52.490;13.378;2023-02-22T10:35:58;16.52;;;4.38;;
12762;SDS011;6445;52.490;13.378;2023-02-22T10:38:25;20.73;;;4.50;;
12762;SDS011;6445;52.490;13.378;2023-02-22T10:40:56;21.77;;;4.97;;
12762;SDS011;6445;52.490;13.378;2023-02-22T10:43:26;16.02;;;4.75;;
12762;SDS011;6445;52.490;13.378;2023-02-22T10:45:52;17.92;;;4.65;;
12762;SDS011;6445;52.490;13.378;2023-02-22T10:48:25;24.95;;;4.50;;
12762;SDS011;6445;52.490;13.378;2023-02-22T10:50:56;18.98;;;3.95;;
12762;SDS011;6445;52.490;13.378;2023-02-22T10:53:25;13.38;;;3.97;;
12762;SDS011;6445;52.490;13.378;2023-02-22T11:01:36;17.20;;;4.18;;
12762;SDS011;6445;52.490;13.378;2023-02-22T11:06:38;18.80;;;4.25;;
12762;SDS011;6445;52.490;13.378;2023-02-22T11:09:07;13.98;;;4.40;;
12762;SDS011;6445;52.490;13.378;2023-02-22T11:11:34;19.60;;;4.60;;
12762;SDS011;6445;52.490;13.378;2023-02-22T11:14:00;18.00;;;4.45;;
12762;SDS011;6445;52.490;13.378;2023-02-22T11:16:52;18.08;;;5.45;;
12762;SDS011;6445;52.490;13.378;2023-02-22T11:19:21;16.13;;;4.35;;
12762;SDS011;6445;52.490;13.378;2023-02-22T11:21:50;19.65;;;4.38;;
12762;SDS011;6445;52.490;13.378;2023-02-22T11:24:19;15.98;;;4.72;;
12762;SDS011;6445;52.490;13.378;2023-02-22T11:26:54;17.58;;;4.75;;
12762;SDS011;6445;52.490;13.378;2023-02-22T11:29:27;16.70;;;4.10;;
12762;SDS011;6445;52.490;13.378;2023-02-22T11:31:56;16.52;;;3.80;;
12762;SDS011;6445;52.490;13.378;2023-02-22T11:34:24;19.30;;;5.07;;
12762;SDS011;6445;52.490;13.378;2023-02-22T11:36:52;18.95;;;4.38;;
12762;SDS011;6445;52.490;13.378;2023-02-22T11:39:25;14.32;;;3.97;;
12762;SDS011;6445;52.490;13.378;2023-02-22T11:41:58;16.00;;;3.80;;
12762;SDS011;6445;52.490;13.378;2023-02-22T11:44:44;17.38;;;4.15;;
12762;SDS011;6445;52.490;13.378;2023-02-22T11:47:10;15.68;;;4.18;;
12762;SDS011;6445;52.490;13.378;2023-02-22T11:49:36;11.90;;;3.72;;
12762;SDS011;6445;52.490;13.378;2023-02-22T11:54:51;15.27;;;3.75;;
12762;SDS011;6445;52.490;13.378;2023-02-22T11:57:38;16.85;;;3.67;;
12762;SDS011;6445;52.490;13.378;2023-02-22T12:00:18;13.20;;;3.60;;
12762;SDS011;6445;52.490;13.378;2023-02-22T12:08:49;17.60;;;4.43;;
12762;SDS011;6445;52.490;13.378;2023-02-22T12:11:31;15.20;;;3.90;;
12762;SDS011;6445;52.490;13.378;2023-02-22T12:14:06;16.55;;;4.13;;
12762;SDS011;6445;52.490;13.378;2023-02-22T12:19:44;11.50;;;3.60;;
12762;SDS011;6445;52.490;13.378;2023-02-22T12:22:20;15.07;;;3.67;;
12762;SDS011;6445;52.490;13.378;2023-02-22T12:24:56;13.13;;;3.45;;
12762;SDS011;6445;52.490;13.378;2023-02-22T12:27:29;14.63;;;3.17;;
12762;SDS011;6445;52.490;13.378;2023-02-22T12:30:03;14.13;;;2.90;;
12762;SDS011;6445;52.490;13.378;2023-02-22T12:32:38;14.85;;;3.47;;
12762;SDS011;6445;52.490;13.378;2023-02-22T12:35:17;18.38;;;3.30;;
12762;SDS011;6445;52.490;13.378;2023-02-22T12:37:51;18.77;;;3.28;;
12762;SDS011;6445;52.490;13.378;2023-02-22T12:43:31;20.45;;;4.05;;
12762;SDS011;6445;52.490;13.378;2023-02-22T12:48:51;16.15;;;3.83;;
12762;SDS011;6445;52.490;13.378;2023-02-22T12:57:19;16.92;;;3.75;;
12762;SDS011;6445;52.490;13.378;2023-02-22T12:59:53;16.67;;;4.50;;
12762;SDS011;6445;52.490;13.378;2023-02-22T13:02:25;22.17;;;4.25;;
12762;SDS011;6445;52.490;13.378;2023-02-22T13:04:55;17.90;;;4.05;;
12762;SDS011;6445;52.490;13.378;2023-02-22T13:13:16;15.25;;;3.33;;
12762;SDS011;6445;52.490;13.378;2023-02-22T13:21:30;13.95;;;3.72;;
12762;SDS011;6445;52.490;13.378;2023-02-22T13:24:19;11.77;;;3.25;;
12762;SDS011;6445;52.490;13.378;2023-02-22T13:27:03;14.20;;;2.60;;
12762;SDS011;6445;52.490;13.378;2023-02-22T13:29:33;12.05;;;2.85;;
12762;SDS011;6445;52.490;13.378;2023-02-22T13:40:04;17.48;;;3.08;;
12762;SDS011;6445;52.490;13.378;2023-02-22T13:51:42;12.40;;;3.65;;
12762;SDS011;6445;52.490;13.378;2023-02-22T13:54:16;16.73;;;3.75;;
12762;SDS011;6445;52.490;13.378;2023-02-22T13:56:48;14.18;;;3.53;;
12762;SDS011;6445;52.490;13.378;2023-02-22T13:59:29;10.63;;;3.22;;
12762;SDS011;6445;52.490;13.378;2023-02-22T14:01:59;17.65;;;3.45;;
12762;SDS011;6445;52.490;13.378;2023-02-22T14:12:09;16.10;;;3.63;;
12762;SDS011;6445;52.490;13.378;2023-02-22T14:18:20;13.52;;;3.13;;
12762;SDS011;6445;52.490;13.378;2023-02-22T14:20:22;15.80;;;4.25;;
12762;SDS011;6445;52.490;13.378;2023-02-22T14:22:57;12.25;;;3.58;;
12762;SDS011;6445;52.490;13.378;2023-02-22T14:25:42;11.68;;;3.53;;
12762;SDS011;6445;52.490;13.378;2023-02-22T14:28:31;8.13;;;2.95;;
12762;SDS011;6445;52.490;13.378;2023-02-22T14:31:09;15.98;;;3.53;;
12762;SDS011;6445;52.490;13.378;2023-02-22T14:33:54;17.95;;;4.10;;
12762;SDS011;6445;52.490;13.378;2023-02-22T14:42:01;12.23;;;4.15;;
12762;SDS011;6445;52.490;13.378;2023-02-22T14:44:35;17.42;;;3.70;;
12762;SDS011;6445;52.490;13.378;2023-02-22T14:47:06;11.18;;;3.47;;
12762;SDS011;6445;52.490;13.378;2023-02-22T14:49:41;14.57;;;3.95;;
12762;SDS011;6445;52.490;13.378;2023-02-22T14:52:14;18.52;;;3.65;;
12762;SDS011;6445;52.490;13.378;2023-02-22T14:54:55;15.60;;;3.45;;
12762;SDS011;6445;52.490;13.378;2023-02-22T14:57:34;14.38;;;4.63;;
12762;SDS011;6445;52.490;13.378;2023-02-22T15:00:12;14.75;;;3.95;;
12762;SDS011;6445;52.490;13.378;2023-02-22T15:02:44;16.85;;;4.07;;
12762;SDS011;6445;52.490;13.378;2023-02-22T15:05:12;21.75;;;4.05;;
12762;SDS011;6445;52.490;13.378;2023-02-22T15:07:39;9.40;;;3.05;;
12762;SDS011;6445;52.490;13.378;2023-02-22T15:10:05;11.07;;;3.20;;
12762;SDS011;6445;52.490;13.378;2023-02-22T15:12:30;12.18;;;3.17;;
12762;SDS011;6445;52.490;13.378;2023-02-22T15:15:09;15.73;;;3.55;;
12762;SDS011;6445;52.490;13.378;2023-02-22T15:17:38;18.10;;;3.83;;
12762;SDS011;6445;52.490;13.378;2023-02-22T15:20:05;12.13;;;3.80;;
12762;SDS011;6445;52.490;13.378;2023-02-22T15:22:34;20.85;;;4.55;;
12762;SDS011;6445;52.490;13.378;2023-02-22T15:25:01;15.90;;;3.55;;
12762;SDS011;6445;52.490;13.378;2023-02-22T15:27:32;13.80;;;3.13;;
12762;SDS011;6445;52.490;13.378;2023-02-22T15:30:08;14.35;;;3.35;;
12762;SDS011;6445;52.490;13.378;2023-02-22T15:32:46;18.27;;;4.88;;
12762;SDS011;6445;52.490;13.378;2023-02-22T15:35:12;15.82;;;3.47;;
12762;SDS011;6445;52.490;13.378;2023-02-22T15:37:37;17.67;;;4.05;;
12762;SDS011;6445;52.490;13.378;2023-02-22T15:40:04;17.05;;;3.80;;
12762;SDS011;6445;52.490;13.378;2023-02-22T15:42:46;16.25;;;3.55;;
12762;SDS011;6445;52.490;13.378;2023-02-22T15:45:17;15.25;;;3.53;;
12762;SDS011;6445;52.490;13.378;2023-02-22T15:47:44;16.80;;;3.58;;
12762;SDS011;6445;52.490;13.378;2023-02-22T15:50:23;14.20;;;3.53;;
12762;SDS011;6445;52.490;13.378;2023-02-22T15:52:52;14.52;;;4.03;;
12762;SDS011;6445;52.490;13.378;2023-02-22T15:55:26;15.20;;;3.72;;
12762;SDS011;6445;52.490;13.378;2023-02-22T15:57:55;14.02;;;3.85;;
12762;SDS011;6445;52.490;13.378;2023-02-22T16:00:26;18.15;;;3.97;;
12762;SDS011;6445;52.490;13.378;2023-02-22T16:03:00;13.88;;;3.78;;
12762;SDS011;6445;52.490;13.378;2023-02-22T16:05:31;14.20;;;3.83;;
12762;SDS011;6445;52.490;13.378;2023-02-22T16:08:07;10.65;;;3.55;;
12762;SDS011;6445;52.490;13.378;2023-02-22T16:13:40;16.05;;;5.07;;
12762;SDS011;6445;52.490;13.378;2023-02-22T16:18:46;12.18;;;3.92;;
12762;SDS011;6445;52.490;13.378;2023-02-22T16:21:17;12.35;;;3.70;;
12762;SDS011;6445;52.490;13.378;2023-02-22T16:23:52;17.23;;;4.30;;
12762;SDS011;6445;52.490;13.378;2023-02-22T16:26:27;18.90;;;5.55;;
12762;SDS011;6445;52.490;13.378;2023-02-22T16:28:53;12.02;;;3.60;;
12762;SDS011;6445;52.490;13.378;2023-02-22T16:31:20;15.60;;;3.90;;
12762;SDS011;6445;52.490;13.378;2023-02-22T16:33:49;15.07;;;3.22;;
12762;SDS011;6445;52.490;13.378;2023-02-22T16:36:15;20.23;;;3.67;;